Time;durP1;ratioP1;P1;durP2;ratioP2;P2;SDS_P1;SDS_P2;PMS_P1;PMS_P2;Temp;Humidity;BMP_temperature;BMP_pressure;BME280_temperature;BME280_humidity;BME280_pressure;Samples;Min_cycle;Max_cycle;Signal;HPM_P1;HPM_P2
2023/12/27 00:00:33;;;;;;;9.23;2.23;;;9.50;77.80;;;;;;5026245;28;20455;-70
2023/12/27 00:02:58;;;;;;;3.77;1.80;;;9.50;77.80;;;;;;5024977;28;20420;-69
2023/12/27 00:05:24;;;;;;;3.20;1.80;;;9.50;78.00;;;;;;5030111;28;20427;-68
2023/12/27 00:07:50;;;;;;;5.03;2.17;;;9.50;78.00;;;;;;5027921;28;20193;-74
2023/12/27 00:10:15;;;;;;;3.37;2.23;;;9.50;78.00;;;;;;5023613;28;20197;-70
2023/12/27 00:12:41;;;;;;;3.43;2.37;;;9.50;78.40;;;;;;5024370;28;20197;-70
2023/12/27 00:15:07;;;;;;;2.90;1.87;;;9.50;78.10;;;;;;5031125;28;20185;-69
2023/12/27 00:17:32;;;;;;;4.90;2.00;;;9.50;78.10;;;;;;5031166;28;20248;-71
2023/12/27 00:19:58;;;;;;;2.73;1.70;;;9.50;78.00;;;;;;5021094;28;20480;-70
2023/12/27 00:22:24;;;;;;;6.60;2.10;;;9.50;77.80;;;;;;5026139;28;20209;-68
2023/12/27 00:24:49;;;;;;;4.10;1.80;;;9.50;77.80;;;;;;5034084;28;20279;-70
2023/12/27 00:27:15;;;;;;;3.70;2.07;;;9.50;78.00;;;;;;5028955;28;20666;-70
2023/12/27 00:29:40;;;;;;;3.63;1.60;;;9.60;77.80;;;;;;5028555;28;20257;-69
2023/12/27 00:32:11;;;;;;;6.73;2.23;;;9.60;77.70;;;;;;5030460;28;20185;-71
2023/12/27 00:34:36;;;;;;;4.47;1.80;;;9.60;77.80;;;;;;5032817;28;20192;-71
2023/12/27 00:37:02;;;;;;;6.43;1.60;;;9.60;77.70;;;;;;5030549;28;20415;-67
2023/12/27 00:39:28;;;;;;;5.70;1.70;;;9.60;77.80;;;;;;5021219;28;20213;-68
2023/12/27 00:41:54;;;;;;;4.03;1.87;;;9.50;77.80;;;;;;5028524;28;20467;-70
2023/12/27 00:44:20;;;;;;;4.67;1.90;;;9.50;77.80;;;;;;5025245;28;20189;-70
2023/12/27 00:46:45;;;;;;;4.90;1.90;;;9.50;77.80;;;;;;5027231;28;20185;-70
2023/12/27 00:49:11;;;;;;;2.67;1.93;;;9.50;77.80;;;;;;5029077;28;20561;-70
2023/12/27 00:51:37;;;;;;;8.60;2.50;;;9.50;77.70;;;;;;5024412;28;20430;-69
2023/12/27 00:54:03;;;;;;;9.70;1.90;;;9.50;77.80;;;;;;5027733;28;20499;-71
2023/12/27 00:56:29;;;;;;;3.40;1.90;;;9.60;78.00;;;;;;5028780;28;20189;-69
2023/12/27 00:58:54;;;;;;;2.60;1.80;;;9.60;78.00;;;;;;5025415;28;20221;-69
2023/12/27 01:01:20;;;;;;;5.77;1.90;;;9.60;78.00;;;;;;5024172;28;20205;-69
2023/12/27 01:03:45;;;;;;;3.67;1.70;;;9.60;78.00;;;;;;5028081;28;20188;-69
2023/12/27 01:06:12;;;;;;;2.40;1.77;;;9.60;77.70;;;;;;5027594;28;20559;-70
2023/12/27 01:08:38;;;;;;;4.43;2.03;;;9.60;77.70;;;;;;5032418;28;20240;-71
2023/12/27 01:11:04;;;;;;;2.67;1.40;;;9.60;77.70;;;;;;5022694;28;20488;-70
2023/12/27 01:13:29;;;;;;;3.20;1.83;;;9.60;77.80;;;;;;5028567;28;20446;-70
2023/12/27 01:15:58;;;;;;;2.70;1.60;;;9.70;77.30;;;;;;5023601;28;20420;-70
2023/12/27 01:18:23;;;;;;;3.07;1.63;;;9.60;77.40;;;;;;5026245;28;20233;-69
2023/12/27 01:20:49;;;;;;;8.57;1.77;;;9.50;77.60;;;;;;5025587;28;20448;-69
2023/12/27 01:23:14;;;;;;;3.63;1.80;;;9.50;77.80;;;;;;5029658;28;20174;-71
2023/12/27 01:25:40;;;;;;;4.43;2.20;;;9.60;77.80;;;;;;5023044;28;20178;-70
2023/12/27 01:28:06;;;;;;;3.87;1.97;;;9.60;77.60;;;;;;5029367;28;20788;-71
2023/12/27 01:30:31;;;;;;;4.17;2.40;;;9.50;77.80;;;;;;5023160;28;21367;-69
2023/12/27 01:32:57;;;;;;;4.33;2.00;;;9.50;78.00;;;;;;5029149;28;20364;-70
2023/12/27 01:35:23;;;;;;;8.50;2.13;;;9.50;78.10;;;;;;5021922;28;20185;-69
2023/12/27 01:37:49;;;;;;;3.40;2.07;;;9.60;78.30;;;;;;5029299;28;20463;-70
2023/12/27 01:40:15;;;;;;;3.97;2.27;;;9.80;78.10;;;;;;5020347;28;20229;-70
2023/12/27 01:42:40;;;;;;;4.97;1.87;;;9.90;77.80;;;;;;5031306;28;20177;-68
2023/12/27 01:45:06;;;;;;;4.00;2.00;;;9.90;77.70;;;;;;5025782;28;20428;-70
2023/12/27 01:47:33;;;;;;;3.87;1.90;;;9.80;77.70;;;;;;5027629;28;20556;-69
2023/12/27 01:49:59;;;;;;;3.50;1.90;;;9.90;77.30;;;;;;5019594;28;20468;-69
2023/12/27 01:52:26;;;;;;;4.37;1.50;;;9.90;77.40;;;;;;5033086;28;20412;-69
2023/12/27 01:54:52;;;;;;;4.50;1.90;;;9.90;77.10;;;;;;5024139;28;20451;-69
2023/12/27 01:57:18;;;;;;;3.80;1.60;;;10.00;77.10;;;;;;5028872;28;20863;-69
2023/12/27 01:59:45;;;;;;;3.40;1.87;;;10.00;77.00;;;;;;5025351;28;20513;-68
2023/12/27 02:02:13;;;;;;;4.17;2.40;;;9.90;77.10;;;;;;5029152;28;20439;-71
2023/12/27 02:04:38;;;;;;;5.27;1.50;;;9.90;77.10;;;;;;5030294;28;20448;-72
2023/12/27 02:07:05;;;;;;;4.70;1.53;;;9.80;77.40;;;;;;5024266;28;21302;-70
2023/12/27 02:09:31;;;;;;;3.57;1.50;;;9.80;77.40;;;;;;5028594;28;20276;-69
2023/12/27 02:11:57;;;;;;;2.40;1.60;;;9.70;77.60;;;;;;5027001;28;21010;-70
2023/12/27 02:14:22;;;;;;;3.57;1.80;;;9.60;77.80;;;;;;5028848;28;20416;-70
2023/12/27 02:16:49;;;;;;;3.83;1.93;;;9.60;78.10;;;;;;5025457;28;20236;-71
2023/12/27 02:19:20;;;;;;;3.30;1.63;;;9.60;78.30;;;;;;5030133;28;20724;-70
2023/12/27 02:21:50;;;;;;;3.07;1.50;;;9.50;78.10;;;;;;5022154;28;20460;-71
2023/12/27 02:24:18;;;;;;;3.77;1.87;;;9.50;78.40;;;;;;5027793;28;20882;-71
2023/12/27 02:26:44;;;;;;;5.47;2.40;;;9.60;78.30;;;;;;5025905;28;20409;-71
2023/12/27 02:29:10;;;;;;;2.80;1.83;;;9.60;78.10;;;;;;5031819;28;20438;-71
2023/12/27 02:31:35;;;;;;;2.03;1.50;;;9.50;78.10;;;;;;5021198;28;20201;-70
2023/12/27 02:34:01;;;;;;;3.43;1.80;;;9.50;78.40;;;;;;5032711;28;20181;-69
2023/12/27 02:36:27;;;;;;;4.73;1.80;;;9.40;78.70;;;;;;5024578;28;20268;-69
2023/12/27 02:38:52;;;;;;;4.47;2.00;;;9.30;78.60;;;;;;5032062;28;20546;-70
2023/12/27 02:41:18;;;;;;;2.73;1.80;;;9.30;79.00;;;;;;5021932;28;20220;-70
2023/12/27 02:43:44;;;;;;;3.50;1.70;;;9.30;79.20;;;;;;5031648;28;20339;-71
2023/12/27 02:46:09;;;;;;;7.43;1.90;;;9.20;79.30;;;;;;5030880;28;20188;-68
2023/12/27 02:48:35;;;;;;;2.60;1.27;;;9.30;79.50;;;;;;5032710;28;20186;-72
2023/12/27 02:51:01;;;;;;;3.17;1.67;;;9.30;79.30;;;;;;5023983;28;20209;-69
2023/12/27 02:53:26;;;;;;;3.17;1.80;;;9.30;79.30;;;;;;5034885;28;20264;-69
2023/12/27 02:55:52;;;;;;;2.50;1.50;;;9.30;79.30;;;;;;5029660;28;20170;-70
2023/12/27 02:58:17;;;;;;;3.70;1.70;;;9.30;79.30;;;;;;5027534;28;20214;-74
2023/12/27 03:00:46;;;;;;;2.90;1.60;;;9.30;79.30;;;;;;5025397;28;20267;-71
2023/12/27 03:03:12;;;;;;;3.70;1.70;;;9.30;79.20;;;;;;5032915;28;20654;-69
2023/12/27 03:05:37;;;;;;;4.83;1.83;;;9.30;79.30;;;;;;5032931;28;20436;-69
2023/12/27 03:08:03;;;;;;;3.10;1.77;;;9.30;79.20;;;;;;5029753;28;21177;-71
2023/12/27 03:10:29;;;;;;;2.70;1.50;;;9.10;79.30;;;;;;5021728;28;20205;-70
2023/12/27 03:12:54;;;;;;;3.57;2.17;;;9.20;79.60;;;;;;5031986;28;20474;-71
2023/12/27 03:15:20;;;;;;;2.70;1.90;;;9.30;79.50;;;;;;5030294;28;20200;-72
2023/12/27 03:17:46;;;;;;;3.80;1.80;;;9.30;79.50;;;;;;5031745;28;20240;-71
2023/12/27 03:20:11;;;;;;;2.70;1.60;;;9.30;79.30;;;;;;5030462;28;20217;-70
2023/12/27 03:22:37;;;;;;;4.63;1.90;;;9.40;79.30;;;;;;5031149;28;20212;-70
2023/12/27 03:25:03;;;;;;;2.80;1.53;;;9.40;79.20;;;;;;5031077;28;20420;-70
2023/12/27 03:27:29;;;;;;;2.27;1.63;;;9.30;79.00;;;;;;5027385;28;20258;-72
2023/12/27 03:29:55;;;;;;;2.70;1.60;;;9.30;79.20;;;;;;5022609;28;20547;-70
2023/12/27 03:32:22;;;;;;;2.60;1.90;;;9.10;79.30;;;;;;5022452;28;20429;-70
2023/12/27 03:34:48;;;;;;;2.33;1.97;;;9.00;79.60;;;;;;5028360;28;20180;-68
2023/12/27 03:37:14;;;;;;;2.90;1.80;;;9.00;80.00;;;;;;5022497;28;20421;-69
2023/12/27 03:39:42;;;;;;;4.87;1.93;;;9.00;80.30;;;;;;5025329;28;20185;-69
2023/12/27 03:42:09;;;;;;;3.87;1.70;;;8.90;80.30;;;;;;5023912;28;20443;-71
2023/12/27 03:44:35;;;;;;;4.27;2.33;;;8.90;80.60;;;;;;5028153;28;20583;-69
2023/12/27 03:47:00;;;;;;;4.30;2.00;;;8.90;80.80;;;;;;5032266;28;20435;-71
2023/12/27 03:49:26;;;;;;;4.10;1.70;;;8.90;80.60;;;;;;5029241;28;20246;-69
2023/12/27 03:51:52;;;;;;;2.73;1.83;;;9.00;80.80;;;;;;5033738;28;20200;-70
2023/12/27 03:54:17;;;;;;;3.80;1.73;;;8.90;80.80;;;;;;5033791;28;20615;-70
2023/12/27 03:56:44;;;;;;;3.50;2.13;;;9.00;80.80;;;;;;5029752;28;20205;-69
2023/12/27 03:59:10;;;;;;;3.63;2.20;;;9.00;80.80;;;;;;5025425;28;20221;-68
2023/12/27 04:01:36;;;;;;;2.80;1.93;;;9.10;80.00;;;;;;5032148;28;20615;-70
2023/12/27 04:04:02;;;;;;;4.10;2.27;;;9.10;80.00;;;;;;5033550;28;20192;-69
2023/12/27 04:06:28;;;;;;;4.00;1.97;;;9.10;80.20;;;;;;5029010;28;20529;-70
2023/12/27 04:08:54;;;;;;;7.43;2.50;;;9.20;80.20;;;;;;5033544;28;21160;-70
2023/12/27 04:11:20;;;;;;;5.80;2.00;;;9.30;79.90;;;;;;5022581;28;20208;-70
2023/12/27 04:13:45;;;;;;;3.23;1.93;;;9.40;79.60;;;;;;5028884;28;20426;-70
2023/12/27 04:16:11;;;;;;;3.90;1.87;;;9.40;79.50;;;;;;5017205;28;20201;-69
2023/12/27 04:18:36;;;;;;;4.80;1.90;;;9.40;79.50;;;;;;5032495;28;20216;-70
2023/12/27 04:21:02;;;;;;;4.20;2.43;;;9.50;79.30;;;;;;5024657;28;20224;-70
2023/12/27 04:23:28;;;;;;;4.33;1.87;;;9.50;79.00;;;;;;5028819;28;20217;-70
2023/12/27 04:25:54;;;;;;;3.60;2.03;;;9.60;78.70;;;;;;5023600;28;20879;-70
2023/12/27 04:28:20;;;;;;;4.27;2.17;;;9.50;78.60;;;;;;5029917;28;20550;-71
2023/12/27 04:30:45;;;;;;;4.63;2.10;;;9.40;78.70;;;;;;5020691;28;20452;-70
2023/12/27 04:33:11;;;;;;;4.97;2.17;;;9.30;78.90;;;;;;5026620;28;20719;-71
2023/12/27 04:35:36;;;;;;;3.97;2.17;;;9.30;79.20;;;;;;5022955;28;20174;-69
2023/12/27 04:38:02;;;;;;;6.83;2.97;;;9.20;79.20;;;;;;5024471;28;20208;-70
2023/12/27 04:40:28;;;;;;;2.30;1.90;;;9.20;79.30;;;;;;5015226;28;20283;-70
2023/12/27 04:42:54;;;;;;;3.87;1.87;;;9.30;79.50;;;;;;5022815;28;20189;-71
2023/12/27 04:45:19;;;;;;;2.20;1.73;;;9.20;79.50;;;;;;5023568;28;20360;-70
2023/12/27 04:47:45;;;;;;;4.37;1.93;;;9.20;79.50;;;;;;5015068;28;20500;-71
2023/12/27 04:50:11;;;;;;;3.93;2.40;;;9.30;79.60;;;;;;5023164;28;20209;-70
2023/12/27 04:52:36;;;;;;;6.50;2.20;;;9.40;79.30;;;;;;5029508;28;20182;-69
2023/12/27 04:55:02;;;;;;;5.03;2.17;;;9.40;79.20;;;;;;5022730;28;20174;-69
2023/12/27 04:57:28;;;;;;;3.73;1.90;;;9.40;79.00;;;;;;5029459;28;20771;-69
2023/12/27 04:59:53;;;;;;;4.17;2.13;;;9.40;78.70;;;;;;5026739;28;20236;-70
2023/12/27 05:02:19;;;;;;;3.83;2.27;;;9.40;78.90;;;;;;5029368;28;20180;-69
2023/12/27 05:04:44;;;;;;;5.97;2.70;;;9.40;78.70;;;;;;5031406;28;20620;-69
2023/12/27 05:07:10;;;;;;;3.90;1.87;;;9.30;78.60;;;;;;5031115;28;20334;-70
2023/12/27 05:09:36;;;;;;;4.37;2.53;;;9.20;78.60;;;;;;5030840;28;20177;-69
2023/12/27 05:12:02;;;;;;;8.80;2.50;;;9.10;79.20;;;;;;5029497;28;20209;-71
2023/12/27 05:14:28;;;;;;;3.80;2.07;;;8.90;79.70;;;;;;5029864;28;20230;-70
2023/12/27 05:16:55;;;;;;;5.47;2.67;;;8.80;80.30;;;;;;5026055;28;20470;-70
2023/12/27 05:19:21;;;;;;;4.07;2.13;;;8.60;80.50;;;;;;5028007;28;20220;-70
2023/12/27 05:21:47;;;;;;;4.00;2.10;;;8.50;81.20;;;;;;5029180;28;20455;-70
2023/12/27 05:24:12;;;;;;;4.60;2.20;;;8.50;81.50;;;;;;5026394;28;20440;-70
2023/12/27 05:26:38;;;;;;;3.57;2.50;;;8.40;81.50;;;;;;5028437;28;20200;-71
2023/12/27 05:29:03;;;;;;;4.90;2.40;;;8.20;81.80;;;;;;5025764;28;20333;-69
2023/12/27 05:31:29;;;;;;;3.73;2.30;;;8.20;82.20;;;;;;5018693;28;20572;-69
2023/12/27 05:33:55;;;;;;;3.00;2.40;;;8.10;82.40;;;;;;5028316;28;20196;-70
2023/12/27 05:36:21;;;;;;;4.57;2.20;;;8.10;82.80;;;;;;5031073;28;20424;-68
2023/12/27 05:38:47;;;;;;;5.60;2.40;;;8.10;82.80;;;;;;5028939;28;20564;-70
2023/12/27 05:41:12;;;;;;;8.93;2.33;;;8.10;82.70;;;;;;5022569;28;20213;-69
2023/12/27 05:43:38;;;;;;;5.00;2.30;;;8.00;82.70;;;;;;5026571;28;20435;-70
2023/12/27 05:46:04;;;;;;;5.07;3.00;;;7.90;82.80;;;;;;5030006;28;20189;-70
2023/12/27 05:48:29;;;;;;;5.30;2.80;;;7.90;82.80;;;;;;5026269;28;20236;-70
2023/12/27 05:50:55;;;;;;;4.30;2.30;;;7.90;83.00;;;;;;5017332;28;20220;-69
2023/12/27 05:53:20;;;;;;;5.63;2.50;;;8.00;83.10;;;;;;5026378;28;20191;-71
2023/12/27 05:55:46;;;;;;;4.50;2.13;;;8.00;82.80;;;;;;5028664;28;20181;-69
2023/12/27 05:58:12;;;;;;;4.60;2.10;;;8.00;82.80;;;;;;5025634;28;20723;-69
2023/12/27 06:00:37;;;;;;;6.13;2.60;;;8.00;82.80;;;;;;5022386;28;20224;-70
2023/12/27 06:03:03;;;;;;;6.03;2.53;;;8.00;82.80;;;;;;5027173;28;20180;-70
2023/12/27 06:05:29;;;;;;;3.90;2.30;;;8.00;82.80;;;;;;5026184;28;20189;-70
2023/12/27 06:07:54;;;;;;;6.40;2.50;;;8.10;82.70;;;;;;5024662;28;20416;-71
2023/12/27 06:10:20;;;;;;;4.80;2.60;;;8.10;82.70;;;;;;5022604;28;20393;-70
2023/12/27 06:12:47;;;;;;;5.40;2.87;;;8.10;82.70;;;;;;5024024;28;20284;-69
2023/12/27 06:15:13;;;;;;;3.50;2.57;;;8.10;82.40;;;;;;5023461;28;20309;-70
2023/12/27 06:17:39;;;;;;;5.20;2.80;;;8.20;82.10;;;;;;5020203;28;20468;-71
2023/12/27 06:20:06;;;;;;;7.30;2.70;;;8.10;82.10;;;;;;5021672;28;20255;-68
2023/12/27 06:22:32;;;;;;;3.30;2.50;;;8.00;81.90;;;;;;5026317;28;20181;-67
2023/12/27 06:24:58;;;;;;;9.10;2.93;;;7.90;82.20;;;;;;5025683;28;20924;-70
2023/12/27 06:27:23;;;;;;;7.20;4.03;;;7.80;82.50;;;;;;5029238;28;20266;-69
2023/12/27 06:29:49;;;;;;;6.10;3.03;;;7.70;82.70;;;;;;5026053;28;20267;-71
2023/12/27 06:32:15;;;;;;;10.33;3.80;;;7.70;83.10;;;;;;5026997;28;20185;-70
2023/12/27 06:34:41;;;;;;;4.67;3.10;;;7.70;83.00;;;;;;5027881;28;20204;-70
2023/12/27 06:37:06;;;;;;;6.03;2.80;;;7.60;83.30;;;;;;5030764;28;20904;-70
2023/12/27 06:39:32;;;;;;;5.23;2.93;;;7.70;83.40;;;;;;5029553;28;20639;-70
2023/12/27 06:41:57;;;;;;;8.33;3.23;;;7.70;83.40;;;;;;5017846;28;20243;-69
2023/12/27 06:44:23;;;;;;;4.33;2.80;;;7.70;83.30;;;;;;5018835;28;20182;-70
2023/12/27 06:46:49;;;;;;;11.53;3.37;;;7.80;83.30;;;;;;5023919;28;20185;-70
2023/12/27 06:49:14;;;;;;;8.10;3.90;;;7.80;83.30;;;;;;5024154;28;20555;-70
2023/12/27 06:51:40;;;;;;;8.03;3.57;;;7.70;83.30;;;;;;5020090;28;20232;-68
2023/12/27 06:54:05;;;;;;;7.23;3.60;;;7.70;83.40;;;;;;5024595;28;20201;-69
2023/12/27 06:56:31;;;;;;;6.97;3.77;;;7.70;83.60;;;;;;5029462;28;20178;-70
2023/12/27 06:58:57;;;;;;;9.13;4.20;;;7.50;83.60;;;;;;5021501;28;20317;-70
2023/12/27 07:01:24;;;;;;;12.57;4.30;;;7.40;84.00;;;;;;5025954;28;20270;-71
2023/12/27 07:03:50;;;;;;;8.03;3.87;;;7.40;84.10;;;;;;5024273;28;20273;-68
2023/12/27 07:06:16;;;;;;;5.33;3.40;;;7.30;84.40;;;;;;5033117;28;20431;-69
2023/12/27 07:08:43;;;;;;;6.67;3.80;;;7.40;84.60;;;;;;5032247;28;20650;-70
2023/12/27 07:11:15;;;;;;;7.53;3.53;;;7.30;84.60;;;;;;5025622;28;20290;-71
2023/12/27 07:13:41;;;;;;;8.27;4.67;;;7.40;84.60;;;;;;5031048;28;20418;-71
2023/12/27 07:16:06;;;;;;;6.97;3.43;;;7.50;84.60;;;;;;5031519;28;20800;-70
2023/12/27 07:18:35;;;;;;;6.93;4.00;;;7.60;84.40;;;;;;5031693;28;20189;-69
2023/12/27 07:21:00;;;;;;;6.33;4.07;;;7.60;84.10;;;;;;5026978;28;20761;-69
2023/12/27 07:23:26;;;;;;;5.80;3.70;;;7.50;84.00;;;;;;5030321;28;20422;-72
2023/12/27 07:25:51;;;;;;;8.73;4.10;;;7.40;84.10;;;;;;5029544;28;20188;-70
2023/12/27 07:28:17;;;;;;;5.63;4.13;;;7.50;84.30;;;;;;5029740;28;20204;-70
2023/12/27 07:30:43;;;;;;;7.37;4.40;;;7.60;84.30;;;;;;5022721;28;20651;-71
2023/12/27 07:33:08;;;;;;;7.33;4.87;;;7.50;84.00;;;;;;5030758;28;20186;-68
2023/12/27 07:35:34;;;;;;;9.17;3.87;;;7.50;84.10;;;;;;5025740;28;20279;-68
2023/12/27 07:38:00;;;;;;;8.00;4.23;;;7.60;84.40;;;;;;5031227;28;20706;-71
2023/12/27 07:40:27;;;;;;;11.93;4.50;;;7.60;84.30;;;;;;5023777;28;20217;-70
2023/12/27 07:42:53;;;;;;;10.00;4.77;;;7.60;84.30;;;;;;5030452;28;20462;-69
2023/12/27 07:45:21;;;;;;;8.53;4.30;;;7.60;84.30;;;;;;5023365;28;20421;-70
2023/12/27 07:47:47;;;;;;;7.90;3.93;;;7.60;84.00;;;;;;5024570;28;20422;-69
2023/12/27 07:50:12;;;;;;;6.60;4.20;;;7.70;84.00;;;;;;5027020;28;20543;-70
2023/12/27 07:52:38;;;;;;;9.93;5.00;;;7.70;83.80;;;;;;5028882;28;20181;-69
2023/12/27 07:55:04;;;;;;;12.17;5.20;;;7.70;83.80;;;;;;5014997;28;20185;-70
2023/12/27 07:57:29;;;;;;;6.27;4.00;;;7.60;83.80;;;;;;5022597;28;20224;-71
2023/12/27 07:59:57;;;;;;;10.20;4.77;;;7.60;84.10;;;;;;5024966;28;20451;-69
2023/12/27 08:02:23;;;;;;;8.70;4.37;;;7.70;84.00;;;;;;5027647;28;20186;-69
2023/12/27 08:04:49;;;;;;;8.73;6.00;;;7.70;83.60;;;;;;5026484;28;20436;-70
2023/12/27 08:07:15;;;;;;;10.60;5.90;;;7.60;83.40;;;;;;5025882;28;20485;-69
2023/12/27 08:09:40;;;;;;;9.10;5.13;;;7.60;83.80;;;;;;5018412;28;20193;-68
2023/12/27 08:12:06;;;;;;;7.03;4.53;;;7.50;84.00;;;;;;5025467;28;20682;-70
2023/12/27 08:14:32;;;;;;;8.10;4.57;;;7.50;84.30;;;;;;5026434;28;20181;-69
2023/12/27 08:16:58;;;;;;;6.10;4.40;;;7.50;84.10;;;;;;5023078;28;20432;-69
2023/12/27 08:19:24;;;;;;;9.23;5.10;;;7.50;84.30;;;;;;5025726;28;20464;-68
2023/12/27 08:21:49;;;;;;;10.77;4.90;;;7.50;84.40;;;;;;5021110;28;20244;-69
2023/12/27 08:24:15;;;;;;;7.37;4.30;;;7.50;84.30;;;;;;5021619;28;20184;-69
2023/12/27 08:26:41;;;;;;;7.53;4.43;;;7.60;84.70;;;;;;5023661;28;20671;-70
2023/12/27 08:29:07;;;;;;;9.30;4.63;;;7.70;84.60;;;;;;5023778;28;20183;-70
2023/12/27 08:31:33;;;;;;;7.30;4.43;;;7.80;84.60;;;;;;5021288;28;20201;-70
2023/12/27 08:34:02;;;;;;;10.60;5.23;;;7.90;84.40;;;;;;5021352;28;20425;-72
2023/12/27 08:36:29;;;;;;;10.37;4.80;;;8.00;83.80;;;;;;5026683;28;20207;-69
2023/12/27 08:38:55;;;;;;;11.90;5.60;;;8.00;83.10;;;;;;5023214;28;20474;-69
2023/12/27 08:41:24;;;;;;;11.17;4.70;;;8.00;82.80;;;;;;5021025;28;20455;-71
2023/12/27 08:43:51;;;;;;;6.93;5.07;;;7.90;83.00;;;;;;5029650;28;20273;-71
2023/12/27 08:46:17;;;;;;;7.63;4.60;;;7.90;83.00;;;;;;5030207;28;20435;-69
2023/12/27 08:48:42;;;;;;;8.47;5.20;;;7.90;83.30;;;;;;5029479;28;20427;-70
2023/12/27 08:51:09;;;;;;;9.60;6.13;;;8.00;83.60;;;;;;5028137;28;20205;-71
2023/12/27 08:53:35;;;;;;;9.00;4.70;;;8.10;83.60;;;;;;5032165;28;20211;-69
2023/12/27 08:56:00;;;;;;;8.80;4.70;;;8.20;83.00;;;;;;5030865;28;20422;-69
2023/12/27 08:58:26;;;;;;;6.17;4.30;;;8.10;82.40;;;;;;5025382;28;20897;-70
2023/12/27 09:00:51;;;;;;;11.73;5.30;;;8.10;82.70;;;;;;5020769;28;20306;-71
2023/12/27 09:03:17;;;;;;;8.87;5.30;;;8.00;82.70;;;;;;5027819;28;20188;-70
2023/12/27 09:05:42;;;;;;;11.80;5.50;;;8.10;83.10;;;;;;5029908;28;20186;-71
2023/12/27 09:08:08;;;;;;;9.53;6.00;;;8.10;83.30;;;;;;5026078;28;20525;-70
2023/12/27 09:10:35;;;;;;;11.10;5.03;;;8.10;83.30;;;;;;5027625;28;20216;-70
2023/12/27 09:13:00;;;;;;;10.83;5.90;;;8.20;83.10;;;;;;5029295;28;20196;-71
2023/12/27 09:15:26;;;;;;;10.57;5.33;;;8.30;83.00;;;;;;5029009;28;20408;-71
2023/12/27 09:17:52;;;;;;;8.27;4.67;;;8.30;82.40;;;;;;5027729;28;20349;-68
2023/12/27 09:20:17;;;;;;;8.97;5.40;;;8.30;82.20;;;;;;5013588;28;20201;-71
2023/12/27 09:22:43;;;;;;;8.20;4.47;;;8.40;81.70;;;;;;5025514;28;20181;-69
2023/12/27 09:25:08;;;;;;;8.77;4.90;;;8.40;80.50;;;;;;5018597;28;20181;-71
2023/12/27 09:27:34;;;;;;;7.63;4.97;;;8.20;80.30;;;;;;5025286;28;20343;-70
2023/12/27 09:30:00;;;;;;;7.10;5.00;;;8.20;80.60;;;;;;5016476;28;20214;-70
2023/12/27 09:32:25;;;;;;;12.37;4.93;;;8.30;81.10;;;;;;5024604;28;20177;-70
2023/12/27 09:34:51;;;;;;;18.80;8.00;;;8.40;81.20;;;;;;5023760;28;20228;-70
2023/12/27 09:37:16;;;;;;;4.00;3.13;;;8.40;80.60;;;;;;5025351;28;20196;-69
2023/12/27 09:39:42;;;;;;;7.50;3.77;;;8.50;79.70;;;;;;5021559;28;20685;-71
2023/12/27 09:42:08;;;;;;;6.20;3.90;;;8.50;78.70;;;;;;5022701;28;20330;-71
2023/12/27 09:44:35;;;;;;;9.53;4.87;;;8.40;78.30;;;;;;5022448;28;20213;-69
2023/12/27 09:47:03;;;;;;;5.87;3.40;;;8.40;78.30;;;;;;5021385;28;20177;-71
2023/12/27 09:49:30;;;;;;;12.20;3.87;;;8.40;78.30;;;;;;5023663;28;20951;-67
2023/12/27 09:51:57;;;;;;;11.00;4.00;;;8.50;77.80;;;;;;5022055;28;20446;-69
2023/12/27 09:54:23;;;;;;;9.50;3.70;;;8.50;77.30;;;;;;5029107;28;20427;-68
2023/12/27 09:56:50;;;;;;;7.10;3.80;;;8.40;77.60;;;;;;5026381;28;20506;-71
2023/12/27 09:59:26;;;;;;;8.70;3.93;;;8.30;77.80;;;;;;5016215;28;20268;-67
2023/12/27 10:01:56;;;;;;;7.57;4.43;;;8.30;78.10;;;;;;5018328;28;20490;-71
2023/12/27 10:04:38;;;;;;;6.50;3.77;;;8.30;78.30;;;;;;5026239;28;20956;-70
2023/12/27 10:07:04;;;;;;;9.77;4.77;;;8.30;78.40;;;;;;5025281;28;20444;-71
2023/12/27 10:09:33;;;;;;;9.10;4.33;;;8.20;78.60;;;;;;5026664;28;20802;-69
2023/12/27 10:11:59;;;;;;;6.43;4.00;;;8.30;78.70;;;;;;5024004;28;20432;-70
2023/12/27 10:14:27;;;;;;;9.30;4.10;;;8.30;78.70;;;;;;5026721;28;20466;-69
2023/12/27 10:16:53;;;;;;;8.10;4.20;;;8.30;79.00;;;;;;5021352;28;20531;-70
2023/12/27 10:19:38;;;;;;;10.03;5.03;;;8.40;79.20;;;;;;5026400;28;20510;-69
2023/12/27 10:22:04;;;;;;;7.00;4.40;;;8.50;78.60;;;;;;5028618;28;20469;-70
2023/12/27 10:24:30;;;;;;;10.37;5.20;;;8.60;78.40;;;;;;5024485;28;20425;-69
2023/12/27 10:26:59;;;;;;;10.30;4.40;;;8.70;78.70;;;;;;5030593;28;20268;-69
2023/12/27 10:29:24;;;;;;;12.60;4.13;;;8.70;78.30;;;;;;5022347;28;20197;-70
2023/12/27 10:31:50;;;;;;;9.23;4.30;;;8.80;78.60;;;;;;5021762;28;20795;-71
2023/12/27 10:34:16;;;;;;;6.03;3.80;;;8.90;78.00;;;;;;5025598;28;20178;-69
2023/12/27 10:36:42;;;;;;;7.93;3.90;;;9.10;77.00;;;;;;5027990;28;20604;-71
2023/12/27 10:39:09;;;;;;;9.90;3.93;;;9.20;75.90;;;;;;5021655;28;20480;-69
2023/12/27 10:41:37;;;;;;;9.20;3.90;;;9.20;76.70;;;;;;5024249;28;20499;-69
2023/12/27 10:44:04;;;;;;;7.30;3.80;;;9.40;76.80;;;;;;5030621;28;20614;-69
2023/12/27 10:46:31;;;;;;;11.00;3.90;;;9.60;76.80;;;;;;5030724;28;20427;-70
2023/12/27 10:49:03;;;;;;;9.10;3.43;;;9.70;75.80;;;;;;5031186;28;20426;-71
2023/12/27 10:51:30;;;;;;;7.10;3.23;;;10.00;73.60;;;;;;5025885;28;20458;-69
2023/12/27 10:54:00;;;;;;;7.77;3.60;;;10.20;72.70;;;;;;5025618;28;20456;-70
2023/12/27 10:56:26;;;;;;;4.47;2.83;;;10.40;72.40;;;;;;5029424;28;20439;-71
2023/12/27 10:58:56;;;;;;;5.37;3.13;;;10.70;70.10;;;;;;5025242;28;20467;-70
2023/12/27 11:01:23;;;;;;;6.13;2.20;;;11.00;69.40;;;;;;5026024;28;20201;-71
2023/12/27 11:03:50;;;;;;;4.30;2.53;;;11.30;66.30;;;;;;5025464;28;20444;-70
2023/12/27 11:06:21;;;;;;;5.17;2.70;;;11.40;66.00;;;;;;5027872;28;20428;-68
2023/12/27 11:08:48;;;;;;;6.37;2.97;;;11.40;66.40;;;;;;5030617;28;20427;-71
2023/12/27 11:11:15;;;;;;;6.87;3.40;;;11.40;66.40;;;;;;5033173;28;20602;-69
2023/12/27 11:13:42;;;;;;;5.70;2.77;;;11.40;66.00;;;;;;5035990;28;21009;-69
2023/12/27 11:16:09;;;;;;;4.93;2.70;;;11.40;66.00;;;;;;5031493;28;20489;-68
2023/12/27 11:18:36;;;;;;;9.10;3.63;;;11.50;66.10;;;;;;5023006;28;20476;-71
2023/12/27 11:21:01;;;;;;;4.57;3.00;;;11.50;65.60;;;;;;5027235;28;20961;-70
2023/12/27 11:23:27;;;;;;;6.20;2.50;;;11.40;65.60;;;;;;5026276;28;20456;-68
2023/12/27 11:25:56;;;;;;;3.80;2.60;;;11.30;65.70;;;;;;5031346;28;20654;-69
2023/12/27 11:28:22;;;;;;;6.13;3.37;;;11.40;66.00;;;;;;5027632;28;20515;-70
2023/12/27 11:30:47;;;;;;;6.40;3.40;;;11.50;65.80;;;;;;5024949;28;20846;-70
2023/12/27 11:33:23;;;;;;;4.17;2.70;;;11.60;65.30;;;;;;5028371;28;20435;-70
2023/12/27 11:35:50;;;;;;;7.13;2.90;;;11.70;65.30;;;;;;5028020;28;20264;-70
2023/12/27 11:38:22;;;;;;;6.17;3.27;;;11.90;65.30;;;;;;5033269;28;20448;-71
2023/12/27 11:40:51;;;;;;;4.33;2.47;;;12.10;65.00;;;;;;5030034;28;21049;-72
2023/12/27 11:43:21;;;;;;;5.73;2.77;;;12.20;65.10;;;;;;5031775;28;20408;-70
2023/12/27 11:46:03;;;;;;;8.87;2.23;;;12.40;65.40;;;;;;5031613;28;20948;-70
2023/12/27 11:48:37;;;;;;;5.50;2.37;;;12.30;63.50;;;;;;5033473;28;20424;-69
2023/12/27 11:51:34;;;;;;;5.10;2.70;;;12.30;63.40;;;;;;5025526;28;20451;-69
2023/12/27 11:54:01;;;;;;;7.83;2.80;;;12.50;63.20;;;;;;5027680;28;20415;-73
2023/12/27 11:56:35;;;;;;;6.73;3.27;;;12.40;62.60;;;;;;5032018;28;20421;-70
2023/12/27 11:59:02;;;;;;;5.43;3.30;;;12.50;62.50;;;;;;5022715;28;20496;-71
2023/12/27 12:01:34;;;;;;;5.33;2.00;;;12.30;62.60;;;;;;5024732;28;20983;-71
2023/12/27 12:04:11;;;;;;;4.13;2.30;;;12.10;63.70;;;;;;5028218;28;20462;-70
2023/12/27 12:06:55;;;;;;;4.97;2.60;;;12.20;63.90;;;;;;5031407;28;21155;-71
2023/12/27 12:09:48;;;;;;;4.63;2.57;;;12.30;63.80;;;;;;5018198;28;20448;-68
2023/12/27 12:12:22;;;;;;;5.10;2.80;;;12.40;62.50;;;;;;5031247;28;20439;-72
2023/12/27 12:14:50;;;;;;;3.40;2.23;;;12.50;62.50;;;;;;5023356;28;20805;-70
2023/12/27 12:17:17;;;;;;;6.83;2.10;;;12.60;62.00;;;;;;5026980;28;20439;-70
2023/12/27 12:19:43;;;;;;;4.20;2.60;;;12.60;61.20;;;;;;5023815;28;20569;-69
2023/12/27 12:22:09;;;;;;;4.27;2.43;;;12.60;61.50;;;;;;5030594;28;20436;-72
2023/12/27 12:24:34;;;;;;;3.60;2.10;;;12.70;61.20;;;;;;5029902;28;20194;-68
2023/12/27 12:27:01;;;;;;;4.33;2.20;;;12.70;61.20;;;;;;5029382;28;20424;-69
2023/12/27 12:29:27;;;;;;;2.63;2.10;;;12.70;61.00;;;;;;5031974;28;20185;-70
2023/12/27 12:31:54;;;;;;;3.90;2.33;;;12.80;59.60;;;;;;5027855;28;20435;-70
2023/12/27 12:34:20;;;;;;;5.97;2.60;;;12.80;60.40;;;;;;5029734;28;21004;-70
2023/12/27 12:36:46;;;;;;;4.10;2.70;;;12.90;58.80;;;;;;5034839;28;20428;-70
2023/12/27 12:39:14;;;;;;;4.83;2.83;;;12.90;58.80;;;;;;5034494;28;20459;-70
2023/12/27 12:41:40;;;;;;;5.70;2.40;;;12.90;59.60;;;;;;5028667;28;20550;-71
2023/12/27 12:44:09;;;;;;;5.00;2.27;;;12.90;60.30;;;;;;5031691;28;20424;-69
2023/12/27 12:46:35;;;;;;;4.97;2.50;;;12.90;60.70;;;;;;5030913;28;20423;-69
2023/12/27 12:49:01;;;;;;;6.07;2.67;;;13.00;61.50;;;;;;5030315;28;20424;-71
2023/12/27 12:51:27;;;;;;;5.40;2.70;;;13.10;61.50;;;;;;5027928;28;20217;-69